Latest Weather Observations for Marion Reef

IDQ60801

Issued at 6:32 pm EST Thursday 24 August 2017 (issued every 30 minutes, with the page automatically refreshed every 10 minutes)

About weather observations | Map of weather stations | Latest weather observations for QLD | Other Formats
Station Details ID: 200704 Name: MARION REEF Lat: -19.10 Lon: 152.39 Height: 2.0 m
Data from the previous 72 hours. | See also: Recent months for locations in Queensland
Date/Time
EST
Temp
°C
App
Temp
°C
Dew
Point
°C
Rel
Hum
%
Delta-T
°C
Wind Press
QNH
hPa
Press
MSL
hPa
Rain since
9am
mm
Dir  Spd
km/h
Gust
km/h
Spd
kts
Gust
kts
24/06:30pm 23.4 - - - - E 17 20 9 11 1014.9 - -
24/06:00pm 23.3 - - - - ESE 19 24 10 13 1014.6 1014.6 -
24/05:30pm 23.2 - - - - E 20 24 11 13 1014.5 - -
24/05:00pm 23.4 - - - - ESE 17 20 9 11 1014.4 1014.3 -
24/04:30pm 23.5 - - - - ESE 17 20 9 11 1014.2 - -
24/04:00pm 23.4 - - - - ESE 17 19 9 10 1014.1 1013.9 -
24/03:30pm 23.3 - - - - ESE 17 20 9 11 1014.0 - -
24/03:00pm 23.5 - - - - SE 15 19 8 10 1014.0 1013.9 -
24/02:30pm 23.2 - - - - ESE 17 20 9 11 1014.2 - -
24/02:00pm 23.0 - - - - ESE 19 22 10 12 1014.4 1014.3 -
24/01:30pm 23.4 - - - - ESE 20 26 11 14 1014.7 - -
24/01:00pm 23.3 - - - - ESE 19 20 10 11 1015.1 1014.9 -
24/12:30pm 23.4 - - - - SE 19 20 10 11 1015.6 - -
24/12:00pm 23.1 - - - - ESE 17 20 9 11 1016.0 1015.8 -
24/11:30am 22.8 - - - - ESE 20 22 11 12 1016.3 - -
24/11:00am 23.0 - - - - ESE 20 22 11 12 1016.7 1016.6 -
24/10:30am 22.8 - - - - E 24 28 13 15 1016.8 - -
24/10:00am 23.0 - - - - E 20 24 11 13 1017.1 1016.9 -
24/09:30am 23.2 - - - - ESE 19 22 10 12 1017.3 - -
24/09:00am 22.9 - - - - ESE 20 24 11 13 1017.5 1017.4 -
24/08:30am 23.2 - - - - ESE 20 24 11 13 1017.5 - -
24/08:00am 22.9 - - - - ESE 22 24 12 13 1017.5 1017.4 -
24/07:30am 22.9 - - - - ESE 24 28 13 15 1017.4 - -
24/07:00am 22.8 - - - - ESE 26 28 14 15 1017.0 1017.0 -
24/06:30am 22.5 - - - - ESE 20 24 11 13 1016.8 - -
24/06:00am 22.6 - - - - ESE 22 26 12 14 1016.6 1016.6 -
24/05:30am 22.6 - - - - SE 22 26 12 14 1016.4 - -
24/05:00am 22.6 - - - - ESE 19 22 10 12 1016.1 1016.0 -
24/04:30am 22.6 - - - - ESE 19 22 10 12 1016.2 - -
24/04:00am 22.7 - - - - ESE 20 24 11 13 1016.2 1016.1 -
24/03:30am 22.7 - - - - SE 22 26 12 14 1016.7 - -
24/03:00am 23.0 - - - - SE 19 24 10 13 1016.7 1016.7 -
24/02:30am 22.7 - - - - ESE 20 24 11 13 1016.9 - -
24/02:00am 22.9 - - - - ESE 20 24 11 13 1017.0 1016.9 -
24/01:30am 22.9 - - - - ESE 19 24 10 13 1017.3 - -
24/01:00am 22.7 - - - - ESE 20 24 11 13 1017.5 1017.4 -
24/12:30am 22.7 - - - - ESE 20 24 11 13 1017.5 - -
24/12:00am 23.0 - - - - ESE 22 26 12 14 1017.6 1017.5 -
 
Date/Time
EST
Temp
°C
App
Temp
°C
Dew
Point
°C
Rel
Hum
%
Delta-T
°C
Wind Press
QNH
hPa
Press
MSL
hPa
Rain since
9am
mm
Dir  Spd
km/h
Gust
km/h
Spd
kts
Gust
kts
23/11:30pm 22.8 - - - - ESE 24 30 13 16 1017.8 - -
23/11:00pm 22.8 - - - - ESE 24 30 13 16 1017.9 1017.8 -
23/10:30pm 22.6 - - - - E 20 24 11 13 1017.9 - -
23/10:00pm 22.8 - - - - ESE 20 26 11 14 1017.8 1017.7 -
23/09:30pm 22.6 - - - - ESE 20 26 11 14 1017.9 - -
23/09:00pm 22.9 - - - - ESE 22 28 12 15 1017.9 1017.8 -
23/08:30pm 22.9 - - - - ESE 22 28 12 15 1018.2 - -
23/08:00pm 23.1 - - - - SE 24 28 13 15 1018.2 1018.1 -
23/07:30pm 22.7 - - - - ESE 22 30 12 16 1018.0 - -
23/07:00pm 22.8 - - - - SE 24 28 13 15 1017.8 1017.7 -
23/06:30pm 22.8 - - - - ESE 22 26 12 14 1017.4 - -
23/06:00pm 22.5 - - - - SE 22 28 12 15 1017.1 1017.0 -
23/05:30pm 22.7 - - - - ESE 24 28 13 15 1016.9 - -
23/05:00pm 22.8 - - - - ESE 22 26 12 14 1016.7 1016.6 -
23/04:30pm 22.9 - - - - ESE 22 26 12 14 1016.5 - -
23/04:00pm 22.9 - - - - ESE 24 28 13 15 1016.4 1016.4 -
23/03:30pm 22.8 - - - - ESE 22 28 12 15 1016.5 - -
23/03:00pm 23.3 - - - - ESE 20 28 11 15 1016.6 1016.5 -
23/02:30pm 22.7 - - - - SE 22 26 12 14 1016.8 - -
23/02:00pm 22.8 - - - - ESE 22 26 12 14 1017.1 1016.9 -
23/01:30pm 22.9 - - - - ESE 22 28 12 15 1017.4 - -
23/01:00pm 22.9 - - - - SE 24 30 13 16 1017.7 1017.6 -
23/12:30pm 22.7 - - - - ESE 26 32 14 17 1018.0 - -
23/12:00pm 22.8 - - - - ESE 26 30 14 16 1018.3 1018.2 -
23/11:30am 22.8 - - - - SE 26 32 14 17 1018.7 - -
23/11:00am 22.6 - - - - ESE 24 32 13 17 1019.1 1019.0 -
23/10:30am 22.8 - - - - ESE 26 32 14 17 1019.4 - -
23/10:00am 22.8 - - - - SE 24 33 13 18 1019.5 1019.4 -
23/09:30am 22.7 - - - - SE 24 30 13 16 1019.6 - -
23/09:00am 22.7 - - - - SE 26 30 14 16 1019.5 1019.5 -
23/08:30am 22.7 - - - - SE 22 28 12 15 1019.4 - -
23/08:00am 22.5 - - - - SE 24 28 13 15 1019.3 1019.2 -
23/07:30am 22.4 - - - - SE 22 26 12 14 1018.9 - -
23/07:00am 22.5 - - - - SE 22 26 12 14 1018.6 1018.5 -
23/06:30am 22.6 - - - - SE 24 28 13 15 1018.4 - -
23/06:00am 22.4 - - - - SE 26 32 14 17 1018.2 1018.1 -
23/05:30am 22.7 - - - - SE 24 28 13 15 1018.1 - -
23/05:00am 22.5 - - - - SE 24 30 13 16 1017.9 1017.9 -
23/04:30am 22.5 - - - - SE 24 30 13 16 1017.8 - -
23/04:00am 22.5 - - - - SE 24 28 13 15 1017.8 1017.8 -
23/03:30am 22.7 - - - - ESE 22 28 12 15 1017.9 - -
23/03:00am 22.5 - - - - SE 22 26 12 14 1017.9 1017.7 -
23/02:30am 22.4 - - - - ESE 20 24 11 13 1017.9 - -
23/02:00am 22.3 - - - - E 20 24 11 13 1018.2 1018.0 -
23/01:30am 22.6 - - - - ESE 22 28 12 15 1018.5 - -
23/01:00am 22.7 - - - - ESE 22 28 12 15 1018.9 1018.7 -
23/12:30am 22.7 - - - - ESE 24 28 13 15 1019.1 - -
23/12:00am 22.6 - - - - E 24 30 13 16 1019.4 1019.3 -
 
Date/Time
EST
Temp
°C
App
Temp
°C
Dew
Point
°C
Rel
Hum
%
Delta-T
°C
Wind Press
QNH
hPa
Press
MSL
hPa
Rain since
9am
mm
Dir  Spd
km/h
Gust
km/h
Spd
kts
Gust
kts
22/11:30pm 22.6 - - - - E 24 28 13 15 1019.5 - -
22/11:00pm 22.7 - - - - E 24 30 13 16 1019.6 1019.5 -
22/10:30pm 22.5 - - - - ESE 24 30 13 16 1019.5 - -
22/10:00pm 22.4 - - - - ESE 26 32 14 17 1019.5 1019.4 -
22/09:30pm 22.4 - - - - E 22 28 12 15 1019.5 - -
22/09:00pm 22.5 - - - - E 24 28 13 15 1019.4 1019.3 -
22/08:30pm 22.5 - - - - E 22 28 12 15 1019.2 - -
22/08:00pm 22.8 - - - - ESE 24 30 13 16 1019.1 1019.1 -
22/07:30pm 22.4 - - - - E 22 26 12 14 1019.0 - -
22/07:00pm 22.5 - - - - E 24 30 13 16 1018.7 1018.7 -
22/06:30pm 22.4 - - - - ESE 22 28 12 15 1018.4 - -
22/06:00pm 22.6 - - - - ESE 22 28 12 15 1018.2 1018.1 -
22/05:30pm 22.5 - - - - ESE 24 28 13 15 1017.9 - -
22/05:00pm 22.3 - - - - ESE 24 - 13 - - 1017.6 -
22/04:00pm 22.3 - - - - ESE 24 32 13 17 1017.1 1017.0 -
22/03:30pm 22.6 - - - - SE 28 32 15 17 1017.1 - -
22/03:00pm 22.8 - - - - SE 22 30 12 16 1017.0 1016.9 -
22/02:30pm 22.5 - - - - ESE 24 30 13 16 1016.8 - -
22/02:00pm 22.4 - - - - SE 26 30 14 16 1016.9 1016.8 -
22/01:30pm 22.8 - - - - ESE 24 30 13 16 1017.0 - -
22/01:00pm 22.7 - - - - ESE 26 30 14 16 1017.2 1017.1 -
22/12:30pm 22.9 - - - - ESE 19 22 10 12 1017.6 - -
22/12:00pm 22.7 - - - - ESE 20 24 11 13 1018.0 1017.9 -
22/11:30am 22.9 - - - - SE 20 26 11 14 1018.5 - -
22/11:00am 22.9 - - - - SE 19 24 10 13 1018.9 1018.7 -
22/10:30am 22.9 - - - - SE 17 20 9 11 1019.1 - -
22/10:00am 22.8 - - - - SE 19 22 10 12 1019.2 1019.1 -
22/09:30am 22.9 - - - - ESE 17 20 9 11 1019.3 - -
22/09:00am 22.7 - - - - ESE 19 22 10 12 1019.3 1019.2 -
22/08:30am 22.7 - - - - E 19 24 10 13 1019.1 - -
22/08:00am 22.9 - - - - ESE 20 28 11 15 1019.0 1018.9 -
22/07:30am 22.6 - - - - ESE 17 20 9 11 1018.8 - -
22/07:00am 22.1 - - - - ESE 20 24 11 13 1018.5 1018.4 -
22/06:30am 21.9 - - - - SSE 17 20 9 11 1018.3 - -
22/06:00am 21.8 - - - - SSE 19 20 10 11 1018.0 1017.9 -
22/05:30am 21.4 - - - - SSE 19 24 10 13 1017.8 - -
22/05:00am 21.9 - - - - SE 17 22 9 12 1017.5 1017.4 -
22/04:30am 21.5 - - - - ESE 17 20 9 11 1017.2 - -
22/04:00am 21.5 - - - - SE 17 22 9 12 1017.3 1017.2 -
22/03:30am 21.8 - - - - E 19 22 10 12 1017.4 - -
22/03:00am 21.8 - - - - ESE 20 24 11 13 1017.5 1017.4 -
22/02:30am 21.9 - - - - ESE 24 28 13 15 1017.5 - -
22/02:00am 21.5 - - - - ESE 24 28 13 15 1017.8 1017.6 -
22/01:30am 22.2 - - - - ESE 24 28 13 15 1018.1 - -
22/01:00am 22.0 - - - - ESE 22 30 12 16 1018.4 1018.2 -
22/12:30am 22.0 - - - - ESE 22 30 12 16 1018.7 - -
22/12:00am 22.0 - - - - ESE 20 24 11 13 1019.0 1018.8 -
 
Date/Time
EST
Temp
°C
App
Temp
°C
Dew
Point
°C
Rel
Hum
%
Delta-T
°C
Wind Press
QNH
hPa
Press
MSL
hPa
Rain since
9am
mm
Dir  Spd
km/h
Gust
km/h
Spd
kts
Gust
kts
21/11:30pm 22.4 - - - - ESE 20 26 11 14 1019.1 - -
21/11:00pm 22.1 - - - - ESE 22 26 12 14 1019.0 1018.9 -
21/10:30pm 21.9 - - - - ESE 26 30 14 16 1019.2 - -
21/10:00pm 22.2 - - - - ESE 24 30 13 16 1019.2 1019.1 -
21/09:30pm 22.2 - - - - E 22 26 12 14 1019.1 - -
21/09:00pm 22.3 - - - - ESE 22 28 12 15 1019.0 1019.0 -
21/08:30pm 22.3 - - - - ESE 24 28 13 15 1018.9 - -
21/08:00pm 22.3 - - - - E 26 35 14 19 1018.7 1018.7 -
21/07:30pm 22.4 - - - - SE 26 32 14 17 1018.4 - -
21/07:00pm 22.4 - - - - ESE 28 33 15 18 1017.8 1017.8 -

Other Formats:

Comma delimited format used in spreadsheet applications
http://www.bom.gov.au/fwo/IDQ60801/IDQ60801.94298.axf

JavaScript Object Notation format (JSON) in row-major order
http://www.bom.gov.au/fwo/IDQ60801/IDQ60801.94298.json